sensor_id;sensor_type;location;lat;lon;timestamp;temperature;humidity
65072;DHT22;51663;52.310;17.016;2023-04-05T00:02:21;26.30;19.80
65072;DHT22;51663;52.310;17.016;2023-04-05T00:05:27;26.30;19.60
65072;DHT22;51663;52.310;17.016;2023-04-05T00:08:34;26.50;19.50
65072;DHT22;51663;52.310;17.016;2023-04-05T00:11:38;26.50;19.50
65072;DHT22;51663;52.310;17.016;2023-04-05T00:14:40;26.60;19.40
65072;DHT22;51663;52.310;17.016;2023-04-05T00:17:43;26.70;19.50
65072;DHT22;51663;52.310;17.016;2023-04-05T00:20:54;26.80;19.60
65072;DHT22;51663;52.310;17.016;2023-04-05T00:23:56;26.80;19.70
65072;DHT22;51663;52.310;17.016;2023-04-05T00:26:59;26.90;19.30
65072;DHT22;51663;52.310;17.016;2023-04-05T00:30:02;27.00;19.40
65072;DHT22;51663;52.310;17.016;2023-04-05T00:33:04;27.10;19.60
65072;DHT22;51663;52.310;17.016;2023-04-05T00:36:17;27.20;19.60
65072;DHT22;51663;52.310;17.016;2023-04-05T00:39:19;27.20;19.80
65072;DHT22;51663;52.310;17.016;2023-04-05T00:42:22;27.00;19.90
65072;DHT22;51663;52.310;17.016;2023-04-05T00:45:24;27.10;19.80
65072;DHT22;51663;52.310;17.016;2023-04-05T00:48:27;27.00;20.00
65072;DHT22;51663;52.310;17.016;2023-04-05T00:51:30;27.00;19.80
65072;DHT22;51663;52.310;17.016;2023-04-05T00:54:34;27.10;19.80
65072;DHT22;51663;52.310;17.016;2023-04-05T00:57:37;27.10;19.80
65072;DHT22;51663;52.310;17.016;2023-04-05T01:04:06;27.20;19.70
65072;DHT22;51663;52.310;17.016;2023-04-05T01:07:25;27.20;19.80
65072;DHT22;51663;52.310;17.016;2023-04-05T01:10:34;27.20;19.80
65072;DHT22;51663;52.310;17.016;2023-04-05T01:13:38;27.10;19.70
65072;DHT22;51663;52.310;17.016;2023-04-05T01:16:39;27.10;19.80
65072;DHT22;51663;52.310;17.016;2023-04-05T01:19:42;27.00;19.80
65072;DHT22;51663;52.310;17.016;2023-04-05T01:23:04;27.00;19.80
65072;DHT22;51663;52.310;17.016;2023-04-05T01:29:46;27.10;20.10
65072;DHT22;51663;52.310;17.016;2023-04-05T01:32:56;27.00;19.80
65072;DHT22;51663;52.310;17.016;2023-04-05T01:39:22;26.90;20.10
65072;DHT22;51663;52.310;17.016;2023-04-05T01:42:25;26.80;19.90
65072;DHT22;51663;52.310;17.016;2023-04-05T01:45:27;26.60;19.90
65072;DHT22;51663;52.310;17.016;2023-04-05T01:48:30;26.50;20.00
65072;DHT22;51663;52.310;17.016;2023-04-05T01:51:32;26.50;19.90
65072;DHT22;51663;52.310;17.016;2023-04-05T01:54:34;26.30;19.90
65072;DHT22;51663;52.310;17.016;2023-04-05T01:57:37;26.20;19.90
65072;DHT22;51663;52.310;17.016;2023-04-05T02:00:39;26.20;20.00
65072;DHT22;51663;52.310;17.016;2023-04-05T02:03:42;26.10;19.90
65072;DHT22;51663;52.310;17.016;2023-04-05T02:06:44;26.00;20.00
65072;DHT22;51663;52.310;17.016;2023-04-05T02:09:46;26.00;20.00
65072;DHT22;51663;52.310;17.016;2023-04-05T02:12:49;25.90;19.90
65072;DHT22;51663;52.310;17.016;2023-04-05T02:15:51;25.90;19.90
65072;DHT22;51663;52.310;17.016;2023-04-05T02:18:54;25.90;20.00
65072;DHT22;51663;52.310;17.016;2023-04-05T02:21:59;25.90;20.20
65072;DHT22;51663;52.310;17.016;2023-04-05T02:25:01;25.90;20.00
65072;DHT22;51663;52.310;17.016;2023-04-05T02:28:04;25.80;19.90
65072;DHT22;51663;52.310;17.016;2023-04-05T02:31:10;25.80;19.70
65072;DHT22;51663;52.310;17.016;2023-04-05T02:34:13;25.70;20.10
65072;DHT22;51663;52.310;17.016;2023-04-05T02:37:15;25.80;20.10
65072;DHT22;51663;52.310;17.016;2023-04-05T02:40:17;25.70;20.10
65072;DHT22;51663;52.310;17.016;2023-04-05T02:43:20;25.70;20.10
65072;DHT22;51663;52.310;17.016;2023-04-05T02:46:22;25.70;20.10
65072;DHT22;51663;52.310;17.016;2023-04-05T02:49:24;25.70;19.90
65072;DHT22;51663;52.310;17.016;2023-04-05T02:52:27;25.60;19.70
65072;DHT22;51663;52.310;17.016;2023-04-05T02:55:29;25.60;19.90
65072;DHT22;51663;52.310;17.016;2023-04-05T02:58:32;25.60;19.90
65072;DHT22;51663;52.310;17.016;2023-04-05T03:01:34;25.60;19.80
65072;DHT22;51663;52.310;17.016;2023-04-05T03:04:37;25.50;19.60
65072;DHT22;51663;52.310;17.016;2023-04-05T03:07:41;25.60;19.60
65072;DHT22;51663;52.310;17.016;2023-04-05T03:10:50;25.50;19.60
65072;DHT22;51663;52.310;17.016;2023-04-05T03:13:52;25.50;19.50
65072;DHT22;51663;52.310;17.016;2023-04-05T03:16:54;25.40;19.50
65072;DHT22;51663;52.310;17.016;2023-04-05T03:19:56;25.40;19.40
65072;DHT22;51663;52.310;17.016;2023-04-05T03:23:01;25.40;19.50
65072;DHT22;51663;52.310;17.016;2023-04-05T03:26:04;25.40;19.30
65072;DHT22;51663;52.310;17.016;2023-04-05T03:29:07;25.40;19.50
65072;DHT22;51663;52.310;17.016;2023-04-05T03:32:09;25.40;19.90
65072;DHT22;51663;52.310;17.016;2023-04-05T03:35:13;25.40;19.80
65072;DHT22;51663;52.310;17.016;2023-04-05T03:38:17;25.40;20.20
65072;DHT22;51663;52.310;17.016;2023-04-05T03:41:19;25.50;20.10
65072;DHT22;51663;52.310;17.016;2023-04-05T03:44:22;25.60;20.10
65072;DHT22;51663;52.310;17.016;2023-04-05T03:47:24;25.70;20.10
65072;DHT22;51663;52.310;17.016;2023-04-05T03:50:27;25.70;19.80
65072;DHT22;51663;52.310;17.016;2023-04-05T03:53:29;25.70;19.80
65072;DHT22;51663;52.310;17.016;2023-04-05T03:56:32;25.70;19.70
65072;DHT22;51663;52.310;17.016;2023-04-05T03:59:34;25.60;19.50
65072;DHT22;51663;52.310;17.016;2023-04-05T04:02:36;25.60;19.50
65072;DHT22;51663;52.310;17.016;2023-04-05T04:05:39;25.60;19.60
65072;DHT22;51663;52.310;17.016;2023-04-05T04:08:42;25.50;19.60
65072;DHT22;51663;52.310;17.016;2023-04-05T04:11:44;25.50;19.90
65072;DHT22;51663;52.310;17.016;2023-04-05T04:14:46;25.60;19.50
65072;DHT22;51663;52.310;17.016;2023-04-05T04:17:48;25.60;19.50
65072;DHT22;51663;52.310;17.016;2023-04-05T04:20:50;25.60;19.70
65072;DHT22;51663;52.310;17.016;2023-04-05T04:23:53;25.70;19.60
65072;DHT22;51663;52.310;17.016;2023-04-05T04:26:56;25.70;19.80
65072;DHT22;51663;52.310;17.016;2023-04-05T04:29:58;25.70;19.90
65072;DHT22;51663;52.310;17.016;2023-04-05T04:33:02;25.80;19.80
65072;DHT22;51663;52.310;17.016;2023-04-05T04:36:09;25.80;19.70
65072;DHT22;51663;52.310;17.016;2023-04-05T04:39:14;25.80;19.70
65072;DHT22;51663;52.310;17.016;2023-04-05T04:42:17;25.70;19.70
65072;DHT22;51663;52.310;17.016;2023-04-05T04:45:20;25.80;19.60
65072;DHT22;51663;52.310;17.016;2023-04-05T04:48:23;25.90;19.70
65072;DHT22;51663;52.310;17.016;2023-04-05T04:51:25;25.90;19.70
65072;DHT22;51663;52.310;17.016;2023-04-05T04:54:28;26.00;19.70
65072;DHT22;51663;52.310;17.016;2023-04-05T04:57:30;26.00;19.70
65072;DHT22;51663;52.310;17.016;2023-04-05T05:00:33;26.10;19.70
65072;DHT22;51663;52.310;17.016;2023-04-05T05:03:35;26.10;19.80
65072;DHT22;51663;52.310;17.016;2023-04-05T05:06:39;26.00;19.90
65072;DHT22;51663;52.310;17.016;2023-04-05T05:09:42;26.00;20.00
65072;DHT22;51663;52.310;17.016;2023-04-05T05:12:44;26.10;20.10
65072;DHT22;51663;52.310;17.016;2023-04-05T05:15:46;26.20;20.20
65072;DHT22;51663;52.310;17.016;2023-04-05T05:18:50;26.30;20.20
65072;DHT22;51663;52.310;17.016;2023-04-05T05:21:52;26.40;20.20
65072;DHT22;51663;52.310;17.016;2023-04-05T05:24:55;26.50;20.20
65072;DHT22;51663;52.310;17.016;2023-04-05T05:27:57;26.60;20.10
65072;DHT22;51663;52.310;17.016;2023-04-05T05:30:59;26.70;20.00
65072;DHT22;51663;52.310;17.016;2023-04-05T05:34:01;26.90;20.20
65072;DHT22;51663;52.310;17.016;2023-04-05T05:37:04;27.00;20.10
65072;DHT22;51663;52.310;17.016;2023-04-05T05:40:07;27.10;19.90
65072;DHT22;51663;52.310;17.016;2023-04-05T05:43:09;27.30;20.00
65072;DHT22;51663;52.310;17.016;2023-04-05T05:46:12;27.50;20.10
65072;DHT22;51663;52.310;17.016;2023-04-05T05:49:15;27.60;20.00
65072;DHT22;51663;52.310;17.016;2023-04-05T05:52:17;27.80;20.00
65072;DHT22;51663;52.310;17.016;2023-04-05T05:55:20;27.90;20.10
65072;DHT22;51663;52.310;17.016;2023-04-05T05:58:22;28.10;20.00
65072;DHT22;51663;52.310;17.016;2023-04-05T06:01:24;28.20;19.70
65072;DHT22;51663;52.310;17.016;2023-04-05T06:04:29;28.20;19.60
65072;DHT22;51663;52.310;17.016;2023-04-05T06:07:35;28.20;19.70
65072;DHT22;51663;52.310;17.016;2023-04-05T06:10:37;28.20;19.60
65072;DHT22;51663;52.310;17.016;2023-04-05T06:13:39;28.40;19.80
65072;DHT22;51663;52.310;17.016;2023-04-05T06:16:41;28.60;19.70
65072;DHT22;51663;52.310;17.016;2023-04-05T06:19:44;28.90;19.50
65072;DHT22;51663;52.310;17.016;2023-04-05T06:22:46;29.10;19.40
65072;DHT22;51663;52.310;17.016;2023-04-05T06:25:49;29.40;19.20
65072;DHT22;51663;52.310;17.016;2023-04-05T06:28:51;29.40;19.20
65072;DHT22;51663;52.310;17.016;2023-04-05T06:31:54;29.70;19.10
65072;DHT22;51663;52.310;17.016;2023-04-05T06:34:56;29.90;19.00
65072;DHT22;51663;52.310;17.016;2023-04-05T06:37:58;30.00;18.80
65072;DHT22;51663;52.310;17.016;2023-04-05T06:41:01;29.90;18.70
65072;DHT22;51663;52.310;17.016;2023-04-05T06:44:04;30.00;18.80
65072;DHT22;51663;52.310;17.016;2023-04-05T06:47:07;29.80;18.80
65072;DHT22;51663;52.310;17.016;2023-04-05T06:50:12;29.60;18.80
65072;DHT22;51663;52.310;17.016;2023-04-05T06:53:14;29.70;18.70
65072;DHT22;51663;52.310;17.016;2023-04-05T06:56:19;30.00;18.60
65072;DHT22;51663;52.310;17.016;2023-04-05T06:59:22;30.10;18.20
65072;DHT22;51663;52.310;17.016;2023-04-05T07:02:24;30.40;18.30
65072;DHT22;51663;52.310;17.016;2023-04-05T07:05:27;31.30;18.10
65072;DHT22;51663;52.310;17.016;2023-04-05T07:08:31;32.20;17.80
65072;DHT22;51663;52.310;17.016;2023-04-05T07:11:33;33.10;17.20
65072;DHT22;51663;52.310;17.016;2023-04-05T07:19:38;33.20;16.60
65072;DHT22;51663;52.310;17.016;2023-04-05T07:22:40;32.30;16.80
65072;DHT22;51663;52.310;17.016;2023-04-05T07:25:43;32.40;17.50
65072;DHT22;51663;52.310;17.016;2023-04-05T07:28:45;32.90;17.00
65072;DHT22;51663;52.310;17.016;2023-04-05T07:31:47;33.20;17.00
65072;DHT22;51663;52.310;17.016;2023-04-05T07:34:49;33.60;17.00
65072;DHT22;51663;52.310;17.016;2023-04-05T07:37:55;32.70;16.80
65072;DHT22;51663;52.310;17.016;2023-04-05T07:40:58;32.40;17.40
65072;DHT22;51663;52.310;17.016;2023-04-05T07:44:01;31.50;17.60
65072;DHT22;51663;52.310;17.016;2023-04-05T07:47:03;30.80;18.30
65072;DHT22;51663;52.310;17.016;2023-04-05T07:50:05;29.40;18.80
65072;DHT22;51663;52.310;17.016;2023-04-05T07:53:08;30.00;19.10
65072;DHT22;51663;52.310;17.016;2023-04-05T07:56:11;30.30;18.50
65072;DHT22;51663;52.310;17.016;2023-04-05T07:59:15;29.00;19.40
65072;DHT22;51663;52.310;17.016;2023-04-05T08:02:18;29.50;19.00
65072;DHT22;51663;52.310;17.016;2023-04-05T08:05:20;30.10;18.60
65072;DHT22;51663;52.310;17.016;2023-04-05T08:08:23;30.70;18.20
65072;DHT22;51663;52.310;17.016;2023-04-05T08:11:26;29.90;18.10
65072;DHT22;51663;52.310;17.016;2023-04-05T08:14:28;29.10;18.40
65072;DHT22;51663;52.310;17.016;2023-04-05T08:17:30;29.20;18.10
65072;DHT22;51663;52.310;17.016;2023-04-05T08:20:33;29.30;18.40
65072;DHT22;51663;52.310;17.016;2023-04-05T08:23:40;30.00;18.10
65072;DHT22;51663;52.310;17.016;2023-04-05T08:26:42;30.40;17.90
65072;DHT22;51663;52.310;17.016;2023-04-05T08:29:44;30.20;18.10
65072;DHT22;51663;52.310;17.016;2023-04-05T08:32:47;28.60;19.10
65072;DHT22;51663;52.310;17.016;2023-04-05T08:35:49;27.30;19.80
65072;DHT22;51663;52.310;17.016;2023-04-05T08:38:52;27.90;19.70
65072;DHT22;51663;52.310;17.016;2023-04-05T08:42:14;27.60;19.90
65072;DHT22;51663;52.310;17.016;2023-04-05T08:45:21;27.50;19.90
65072;DHT22;51663;52.310;17.016;2023-04-05T08:48:40;26.40;20.90
65072;DHT22;51663;52.310;17.016;2023-04-05T08:51:48;26.70;20.50
65072;DHT22;51663;52.310;17.016;2023-04-05T08:54:53;25.60;21.40
65072;DHT22;51663;52.310;17.016;2023-04-05T08:58:02;26.10;21.10
65072;DHT22;51663;52.310;17.016;2023-04-05T09:01:43;25.50;21.80
65072;DHT22;51663;52.310;17.016;2023-04-05T09:05:15;26.50;20.90
65072;DHT22;51663;52.310;17.016;2023-04-05T09:08:42;26.50;20.70
65072;DHT22;51663;52.310;17.016;2023-04-05T09:11:44;26.30;20.70
65072;DHT22;51663;52.310;17.016;2023-04-05T09:14:48;26.70;20.40
65072;DHT22;51663;52.310;17.016;2023-04-05T09:17:53;27.10;19.70
65072;DHT22;51663;52.310;17.016;2023-04-05T09:21:04;27.60;19.00
65072;DHT22;51663;52.310;17.016;2023-04-05T09:24:07;28.40;18.30
65072;DHT22;51663;52.310;17.016;2023-04-05T09:27:15;28.30;17.80
65072;DHT22;51663;52.310;17.016;2023-04-05T09:30:50;28.50;17.80
65072;DHT22;51663;52.310;17.016;2023-04-05T09:34:05;28.00;17.90
65072;DHT22;51663;52.310;17.016;2023-04-05T09:37:16;28.00;17.90
65072;DHT22;51663;52.310;17.016;2023-04-05T09:40:52;28.10;18.10
65072;DHT22;51663;52.310;17.016;2023-04-05T09:44:24;27.90;18.70
65072;DHT22;51663;52.310;17.016;2023-04-05T09:47:59;27.50;18.50
65072;DHT22;51663;52.310;17.016;2023-04-05T09:51:18;27.90;17.70
65072;DHT22;51663;52.310;17.016;2023-04-05T09:54:29;28.40;18.10
65072;DHT22;51663;52.310;17.016;2023-04-05T09:57:45;28.10;18.30
65072;DHT22;51663;52.310;17.016;2023-04-05T10:00:51;28.40;17.60
65072;DHT22;51663;52.310;17.016;2023-04-05T10:04:25;28.20;17.40
65072;DHT22;51663;52.310;17.016;2023-04-05T10:07:28;28.40;16.90
65072;DHT22;51663;52.310;17.016;2023-04-05T10:10:55;29.40;16.60
65072;DHT22;51663;52.310;17.016;2023-04-05T10:14:09;29.40;16.40
65072;DHT22;51663;52.310;17.016;2023-04-05T10:17:23;29.70;16.60
65072;DHT22;51663;52.310;17.016;2023-04-05T10:20:32;29.30;16.10
65072;DHT22;51663;52.310;17.016;2023-04-05T10:23:59;29.80;16.00
65072;DHT22;51663;52.310;17.016;2023-04-05T10:35:13;27.80;17.60
65072;DHT22;51663;52.310;17.016;2023-04-05T10:38:23;28.80;17.20
65072;DHT22;51663;52.310;17.016;2023-04-05T10:41:26;28.20;17.70
65072;DHT22;51663;52.310;17.016;2023-04-05T10:44:30;28.40;17.30
65072;DHT22;51663;52.310;17.016;2023-04-05T10:47:41;27.70;17.70
65072;DHT22;51663;52.310;17.016;2023-04-05T10:50:46;27.90;17.80
65072;DHT22;51663;52.310;17.016;2023-04-05T10:53:49;25.80;18.60
65072;DHT22;51663;52.310;17.016;2023-04-05T10:56:51;27.00;18.10
65072;DHT22;51663;52.310;17.016;2023-04-05T10:59:55;26.70;18.30
65072;DHT22;51663;52.310;17.016;2023-04-05T11:02:58;27.40;17.70
65072;DHT22;51663;52.310;17.016;2023-04-05T11:09:23;26.70;17.80
65072;DHT22;51663;52.310;17.016;2023-04-05T11:16:07;26.30;18.10
65072;DHT22;51663;52.310;17.016;2023-04-05T11:19:10;27.00;17.70
65072;DHT22;51663;52.310;17.016;2023-04-05T11:22:13;26.70;17.80
65072;DHT22;51663;52.310;17.016;2023-04-05T11:25:25;27.00;17.90
65072;DHT22;51663;52.310;17.016;2023-04-05T11:28:43;27.60;17.00
65072;DHT22;51663;52.310;17.016;2023-04-05T11:31:58;27.30;17.00
65072;DHT22;51663;52.310;17.016;2023-04-05T11:38:21;28.30;16.10
65072;DHT22;51663;52.310;17.016;2023-04-05T11:41:24;29.30;15.80
65072;DHT22;51663;52.310;17.016;2023-04-05T11:47:44;28.00;16.80
65072;DHT22;51663;52.310;17.016;2023-04-05T11:50:47;26.60;17.50
65072;DHT22;51663;52.310;17.016;2023-04-05T11:53:51;26.30;18.10
65072;DHT22;51663;52.310;17.016;2023-04-05T11:56:53;24.90;18.70
65072;DHT22;51663;52.310;17.016;2023-04-05T11:59:56;25.00;19.10
65072;DHT22;51663;52.310;17.016;2023-04-05T12:02:59;25.50;18.80
65072;DHT22;51663;52.310;17.016;2023-04-05T12:06:03;26.90;18.30
65072;DHT22;51663;52.310;17.016;2023-04-05T12:09:06;25.40;18.70
65072;DHT22;51663;52.310;17.016;2023-04-05T12:12:15;25.80;18.60
65072;DHT22;51663;52.310;17.016;2023-04-05T12:15:18;26.10;18.00
65072;DHT22;51663;52.310;17.016;2023-04-05T12:18:24;26.70;17.70
65072;DHT22;51663;52.310;17.016;2023-04-05T12:21:27;26.50;17.40
65072;DHT22;51663;52.310;17.016;2023-04-05T12:24:31;25.80;17.70
65072;DHT22;51663;52.310;17.016;2023-04-05T12:27:35;25.50;17.60
65072;DHT22;51663;52.310;17.016;2023-04-05T12:30:54;26.40;17.20
65072;DHT22;51663;52.310;17.016;2023-04-05T12:34:03;27.20;16.80
65072;DHT22;51663;52.310;17.016;2023-04-05T12:37:05;27.40;16.60
65072;DHT22;51663;52.310;17.016;2023-04-05T12:40:10;27.00;16.40
65072;DHT22;51663;52.310;17.016;2023-04-05T12:43:13;27.40;16.10
65072;DHT22;51663;52.310;17.016;2023-04-05T12:46:21;27.00;16.20
65072;DHT22;51663;52.310;17.016;2023-04-05T12:49:26;28.40;15.80
65072;DHT22;51663;52.310;17.016;2023-04-05T12:52:31;28.60;15.30
65072;DHT22;51663;52.310;17.016;2023-04-05T12:55:48;29.20;15.10
65072;DHT22;51663;52.310;17.016;2023-04-05T12:58:56;29.70;15.10
65072;DHT22;51663;52.310;17.016;2023-04-05T13:02:01;29.20;15.10
65072;DHT22;51663;52.310;17.016;2023-04-05T13:05:04;29.80;14.90
65072;DHT22;51663;52.310;17.016;2023-04-05T13:08:06;29.10;14.80
65072;DHT22;51663;52.310;17.016;2023-04-05T13:11:09;28.80;14.50
65072;DHT22;51663;52.310;17.016;2023-04-05T13:14:11;29.00;14.40
65072;DHT22;51663;52.310;17.016;2023-04-05T13:17:13;29.10;14.80
65072;DHT22;51663;52.310;17.016;2023-04-05T13:20:16;28.50;15.60
65072;DHT22;51663;52.310;17.016;2023-04-05T13:23:19;26.60;16.60
65072;DHT22;51663;52.310;17.016;2023-04-05T13:26:21;26.40;17.00
65072;DHT22;51663;52.310;17.016;2023-04-05T13:29:24;25.90;17.10
65072;DHT22;51663;52.310;17.016;2023-04-05T13:32:26;25.50;17.20
65072;DHT22;51663;52.310;17.016;2023-04-05T13:35:29;25.60;17.30
65072;DHT22;51663;52.310;17.016;2023-04-05T13:38:31;25.30;17.20
65072;DHT22;51663;52.310;17.016;2023-04-05T13:41:33;26.40;16.60
65072;DHT22;51663;52.310;17.016;2023-04-05T13:44:37;26.90;16.50
65072;DHT22;51663;52.310;17.016;2023-04-05T13:48:06;27.80;16.20
65072;DHT22;51663;52.310;17.016;2023-04-05T13:51:09;27.30;15.90
65072;DHT22;51663;52.310;17.016;2023-04-05T13:54:17;27.70;15.70
65072;DHT22;51663;52.310;17.016;2023-04-05T13:57:19;28.90;15.50
65072;DHT22;51663;52.310;17.016;2023-04-05T14:00:23;29.80;15.30
65072;DHT22;51663;52.310;17.016;2023-04-05T14:03:25;30.10;14.80
65072;DHT22;51663;52.310;17.016;2023-04-05T14:06:27;30.50;14.40
65072;DHT22;51663;52.310;17.016;2023-04-05T14:09:30;30.70;14.30
65072;DHT22;51663;52.310;17.016;2023-04-05T14:12:33;30.60;14.70
65072;DHT22;51663;52.310;17.016;2023-04-05T14:15:37;27.80;15.90
65072;DHT22;51663;52.310;17.016;2023-04-05T14:18:47;25.90;16.60
65072;DHT22;51663;52.310;17.016;2023-04-05T14:22:10;25.00;17.60
65072;DHT22;51663;52.310;17.016;2023-04-05T14:25:17;25.10;17.50
65072;DHT22;51663;52.310;17.016;2023-04-05T14:31:45;24.40;17.70
65072;DHT22;51663;52.310;17.016;2023-04-05T14:34:48;24.20;17.20
65072;DHT22;51663;52.310;17.016;2023-04-05T14:37:50;24.50;17.40
65072;DHT22;51663;52.310;17.016;2023-04-05T14:40:52;24.40;17.10
65072;DHT22;51663;52.310;17.016;2023-04-05T14:43:55;24.90;17.10
65072;DHT22;51663;52.310;17.016;2023-04-05T14:46:57;26.00;16.90
65072;DHT22;51663;52.310;17.016;2023-04-05T14:49:59;25.40;16.40
65072;DHT22;51663;52.310;17.016;2023-04-05T14:53:02;24.60;17.30
65072;DHT22;51663;52.310;17.016;2023-04-05T14:56:08;24.60;17.20
65072;DHT22;51663;52.310;17.016;2023-04-05T14:59:17;24.70;16.80
65072;DHT22;51663;52.310;17.016;2023-04-05T15:02:21;25.90;16.30
65072;DHT22;51663;52.310;17.016;2023-04-05T15:05:29;26.90;15.90
65072;DHT22;51663;52.310;17.016;2023-04-05T15:08:31;28.00;15.30
65072;DHT22;51663;52.310;17.016;2023-04-05T15:11:35;28.80;15.10
65072;DHT22;51663;52.310;17.016;2023-04-05T15:14:40;29.20;14.90
65072;DHT22;51663;52.310;17.016;2023-04-05T15:17:42;29.70;14.60
65072;DHT22;51663;52.310;17.016;2023-04-05T15:20:44;29.80;14.10
65072;DHT22;51663;52.310;17.016;2023-04-05T15:23:47;29.30;14.80
65072;DHT22;51663;52.310;17.016;2023-04-05T15:26:49;27.50;15.00
65072;DHT22;51663;52.310;17.016;2023-04-05T15:29:52;27.00;15.80
65072;DHT22;51663;52.310;17.016;2023-04-05T15:32:54;26.60;16.10
65072;DHT22;51663;52.310;17.016;2023-04-05T15:35:57;26.60;15.80
65072;DHT22;51663;52.310;17.016;2023-04-05T15:38:59;27.10;15.90
65072;DHT22;51663;52.310;17.016;2023-04-05T15:42:01;27.30;16.10
65072;DHT22;51663;52.310;17.016;2023-04-05T15:45:04;27.90;15.30
65072;DHT22;51663;52.310;17.016;2023-04-05T15:48:06;28.30;15.20
65072;DHT22;51663;52.310;17.016;2023-04-05T15:51:13;28.00;15.00
65072;DHT22;51663;52.310;17.016;2023-04-05T15:54:20;27.50;15.10
65072;DHT22;51663;52.310;17.016;2023-04-05T15:57:22;26.20;15.70
65072;DHT22;51663;52.310;17.016;2023-04-05T16:00:25;26.90;16.00
65072;DHT22;51663;52.310;17.016;2023-04-05T16:03:30;27.70;15.60
65072;DHT22;51663;52.310;17.016;2023-04-05T16:06:32;28.40;15.70
65072;DHT22;51663;52.310;17.016;2023-04-05T16:09:34;28.10;15.10
65072;DHT22;51663;52.310;17.016;2023-04-05T16:12:37;28.00;15.00
65072;DHT22;51663;52.310;17.016;2023-04-05T16:15:39;27.80;15.30
65072;DHT22;51663;52.310;17.016;2023-04-05T16:18:41;28.30;15.10
65072;DHT22;51663;52.310;17.016;2023-04-05T16:21:44;28.60;14.80
65072;DHT22;51663;52.310;17.016;2023-04-05T16:24:46;28.80;14.90
65072;DHT22;51663;52.310;17.016;2023-04-05T16:27:49;28.30;15.10
65072;DHT22;51663;52.310;17.016;2023-04-05T16:30:51;28.30;15.20
65072;DHT22;51663;52.310;17.016;2023-04-05T16:33:53;28.60;15.40
65072;DHT22;51663;52.310;17.016;2023-04-05T16:36:55;28.20;15.60
65072;DHT22;51663;52.310;17.016;2023-04-05T16:39:58;28.20;15.60
65072;DHT22;51663;52.310;17.016;2023-04-05T16:43:00;28.20;15.50
65072;DHT22;51663;52.310;17.016;2023-04-05T16:46:02;28.30;15.70
65072;DHT22;51663;52.310;17.016;2023-04-05T16:49:05;28.80;15.70
65072;DHT22;51663;52.310;17.016;2023-04-05T16:52:08;28.60;15.50
65072;DHT22;51663;52.310;17.016;2023-04-05T16:55:10;28.60;15.50
65072;DHT22;51663;52.310;17.016;2023-04-05T16:58:12;28.40;15.40
65072;DHT22;51663;52.310;17.016;2023-04-05T17:01:16;28.30;15.90
65072;DHT22;51663;52.310;17.016;2023-04-05T17:04:18;28.60;15.70
65072;DHT22;51663;52.310;17.016;2023-04-05T17:07:20;28.60;15.70
65072;DHT22;51663;52.310;17.016;2023-04-05T17:10:23;28.70;15.70
65072;DHT22;51663;52.310;17.016;2023-04-05T17:13:28;28.30;15.70
65072;DHT22;51663;52.310;17.016;2023-04-05T17:16:33;28.40;15.80
65072;DHT22;51663;52.310;17.016;2023-04-05T17:19:35;28.60;15.90
65072;DHT22;51663;52.310;17.016;2023-04-05T17:22:38;28.40;16.20
65072;DHT22;51663;52.310;17.016;2023-04-05T17:25:40;28.20;16.40
65072;DHT22;51663;52.310;17.016;2023-04-05T17:28:42;28.30;16.30
65072;DHT22;51663;52.310;17.016;2023-04-05T17:31:45;27.90;16.40
65072;DHT22;51663;52.310;17.016;2023-04-05T17:34:47;27.90;16.30
65072;DHT22;51663;52.310;17.016;2023-04-05T17:37:49;27.90;16.20
65072;DHT22;51663;52.310;17.016;2023-04-05T17:40:52;27.70;16.40
65072;DHT22;51663;52.310;17.016;2023-04-05T17:43:54;27.90;16.20
65072;DHT22;51663;52.310;17.016;2023-04-05T17:46:57;28.10;16.60
65072;DHT22;51663;52.310;17.016;2023-04-05T17:50:10;27.90;16.20
65072;DHT22;51663;52.310;17.016;2023-04-05T17:53:13;27.90;16.20
65072;DHT22;51663;52.310;17.016;2023-04-05T17:56:19;27.50;16.30
65072;DHT22;51663;52.310;17.016;2023-04-05T17:59:23;27.20;16.60
65072;DHT22;51663;52.310;17.016;2023-04-05T18:02:25;27.20;16.60
65072;DHT22;51663;52.310;17.016;2023-04-05T18:05:29;26.90;16.60
65072;DHT22;51663;52.310;17.016;2023-04-05T18:08:31;27.50;16.80
65072;DHT22;51663;52.310;17.016;2023-04-05T18:11:34;27.30;16.50
65072;DHT22;51663;52.310;17.016;2023-04-05T18:14:37;27.50;16.80
65072;DHT22;51663;52.310;17.016;2023-04-05T18:17:43;27.70;16.70
65072;DHT22;51663;52.310;17.016;2023-04-05T18:20:53;27.30;17.00
65072;DHT22;51663;52.310;17.016;2023-04-05T18:23:56;27.40;17.00
65072;DHT22;51663;52.310;17.016;2023-04-05T18:27:00;27.60;16.80
65072;DHT22;51663;52.310;17.016;2023-04-05T18:30:04;27.70;16.80
65072;DHT22;51663;52.310;17.016;2023-04-05T18:33:08;27.90;17.40
65072;DHT22;51663;52.310;17.016;2023-04-05T18:36:10;28.10;17.40
65072;DHT22;51663;52.310;17.016;2023-04-05T18:39:14;28.00;17.00
65072;DHT22;51663;52.310;17.016;2023-04-05T18:42:16;27.90;17.40
65072;DHT22;51663;52.310;17.016;2023-04-05T18:45:19;27.50;16.90
65072;DHT22;51663;52.310;17.016;2023-04-05T18:48:22;27.30;16.90
65072;DHT22;51663;52.310;17.016;2023-04-05T18:51:25;27.60;17.00
65072;DHT22;51663;52.310;17.016;2023-04-05T18:54:28;27.20;16.80
65072;DHT22;51663;52.310;17.016;2023-04-05T18:57:30;27.40;17.10
65072;DHT22;51663;52.310;17.016;2023-04-05T19:00:33;27.40;16.90
65072;DHT22;51663;52.310;17.016;2023-04-05T19:03:36;27.40;16.90
65072;DHT22;51663;52.310;17.016;2023-04-05T19:06:38;27.40;16.90
65072;DHT22;51663;52.310;17.016;2023-04-05T19:09:44;27.40;17.10
65072;DHT22;51663;52.310;17.016;2023-04-05T19:12:46;27.40;17.00
65072;DHT22;51663;52.310;17.016;2023-04-05T19:15:48;27.20;17.00
65072;DHT22;51663;52.310;17.016;2023-04-05T19:18:51;27.50;17.40
65072;DHT22;51663;52.310;17.016;2023-04-05T19:21:54;27.20;17.40
65072;DHT22;51663;52.310;17.016;2023-04-05T19:24:59;27.20;17.70
65072;DHT22;51663;52.310;17.016;2023-04-05T19:28:02;27.10;17.80
65072;DHT22;51663;52.310;17.016;2023-04-05T19:31:05;26.90;17.50
65072;DHT22;51663;52.310;17.016;2023-04-05T19:34:37;26.60;17.60
65072;DHT22;51663;52.310;17.016;2023-04-05T19:37:39;26.60;17.80
65072;DHT22;51663;52.310;17.016;2023-04-05T19:40:42;26.10;18.00
65072;DHT22;51663;52.310;17.016;2023-04-05T19:43:45;25.70;18.30
65072;DHT22;51663;52.310;17.016;2023-04-05T19:46:48;24.10;19.20
65072;DHT22;51663;52.310;17.016;2023-04-05T19:49:52;24.10;19.70